Time;durP1;ratioP1;P1;durP2;ratioP2;P2;SDS_P1;SDS_P2;PMS_P1;PMS_P2;Temp;Humidity;BMP_temperature;BMP_pressure;BME280_temperature;BME280_humidity;BME280_pressure;Samples;Min_cycle;Max_cycle;Signal;HPM_P1;HPM_P2
2022/07/01 00:00:09;;;;;;;9.83;5.20;;;;;;;20.07;71.79;98613.94;5052281;28;20161;-84
2022/07/01 00:02:34;;;;;;;7.93;5.07;;;;;;;22.30;72.46;98976.88;5034114;28;20184;-85
2022/07/01 00:05:00;;;;;;;10.63;4.90;;;;;;;22.74;72.68;99044.34;5052031;28;20158;-84
2022/07/01 00:07:26;;;;;;;10.10;5.63;;;;;;;20.71;73.00;98691.50;5051841;28;20248;-84
2022/07/01 00:09:51;;;;;;;9.43;5.70;;;;;;;20.91;72.64;98729.03;5052015;28;20211;-84
2022/07/01 00:12:16;;;;;;;8.83;6.20;;;;;;;23.27;74.57;99170.31;5051875;28;20576;-84
2022/07/01 00:14:42;;;;;;;9.73;6.10;;;;;;;22.68;75.33;99090.91;5052005;28;20162;-85
2022/07/01 00:17:08;;;;;;;8.33;6.30;;;;;;;23.00;75.53;99165.44;5051889;28;20196;-84
2022/07/01 00:19:33;;;;;;;16.63;6.93;;;;;;;22.23;77.76;99110.19;5051700;28;20161;-84
2022/07/01 00:21:59;;;;;;;9.17;6.90;;;;;;;20.92;77.44;98858.56;5051599;28;20244;-83
2022/07/01 00:24:24;;;;;;;8.43;7.10;;;;;;;19.98;77.36;98702.22;5051592;28;20157;-85
2022/07/01 00:26:50;;;;;;;16.27;7.37;;;;;;;19.51;76.99;98633.09;5051620;28;20555;-83
2022/07/01 00:29:16;;;;;;;10.97;7.90;;;;;;;21.55;75.60;98952.56;5051868;28;20168;-82
2022/07/01 00:31:41;;;;;;;11.90;7.93;;;;;;;20.45;76.06;98794.53;5051157;28;20228;-84
2022/07/01 00:34:07;;;;;;;11.83;8.63;;;;;;;22.70;75.75;99174.31;5051556;28;20245;-85
2022/07/01 00:36:32;;;;;;;12.63;8.30;;;;;;;21.93;76.14;99029.63;5051537;28;20276;-84
2022/07/01 00:38:58;;;;;;;14.87;8.50;;;;;;;20.81;76.67;98855.22;5051333;28;20158;-84
2022/07/01 00:41:23;;;;;;;11.60;8.03;;;;;;;20.71;76.23;98858.72;5051711;28;20176;-85
2022/07/01 00:43:49;;;;;;;11.53;8.40;;;;;;;21.79;76.77;99019.38;5051313;28;20223;-85
2022/07/01 00:46:14;;;;;;;11.77;8.23;;;;;;;22.13;76.58;99076.75;5051214;28;20165;-85
2022/07/01 00:48:40;;;;;;;17.53;8.57;;;;;;;20.46;76.60;98791.94;5051304;28;20180;-84
2022/07/01 00:51:06;;;;;;;12.07;7.90;;;;;;;20.28;76.58;98771.50;5051235;28;20678;-85
2022/07/01 00:53:32;;;;;;;10.80;8.13;;;;;;;19.86;76.18;98684.31;5051223;28;20157;-84
2022/07/01 00:55:57;;;;;;;14.17;8.20;;;;;;;21.70;77.30;99033.19;5051502;28;20231;-85
2022/07/01 00:58:26;;;;;;;15.67;8.80;;;;;;;22.44;77.97;99145.28;5051224;28;20165;-84
2022/07/01 01:00:52;;;;;;;11.57;8.40;;;;;;;20.62;78.04;98848.47;5051218;28;20252;-86
2022/07/01 01:03:17;;;;;;;11.63;8.30;;;;;;;22.42;78.21;99139.25;5051283;28;20240;-85
2022/07/01 01:05:43;;;;;;;11.60;8.03;;;;;;;19.36;78.58;98636.56;5051174;28;20185;-85
2022/07/01 01:08:10;;;;;;;10.17;7.90;;;;;;;19.97;77.47;98688.50;5053835;28;20171;-85
2022/07/01 01:10:36;;;;;;;11.13;8.40;;;;;;;22.58;77.69;99140.84;5055146;28;20623;-84
2022/07/01 01:13:03;;;;;;;10.80;8.37;;;;;;;22.46;78.71;99137.50;5055334;28;20165;-84
2022/07/01 01:15:30;;;;;;;10.33;8.10;;;;;;;22.60;78.02;99140.84;5055051;28;20699;-85
2022/07/01 01:17:55;;;;;;;13.47;7.97;;;;;;;22.43;78.23;99130.66;5054909;28;20189;-84
2022/07/01 01:20:21;;;;;;;10.17;7.97;;;;;;;20.11;79.64;98762.97;5054949;28;20695;-84
2022/07/01 01:22:47;;;;;;;10.33;8.33;;;;;;;21.59;79.88;99021.25;5054720;28;20168;-84
2022/07/01 01:25:13;;;;;;;12.60;8.33;;;;;;;20.21;79.43;98774.94;5054732;28;20191;-86
2022/07/01 01:27:39;;;;;;;9.57;7.67;;;;;;;21.66;79.88;99010.91;5055063;28;20153;-85
2022/07/01 01:30:06;;;;;;;17.00;7.80;;;;;;;21.74;80.33;99032.31;5036888;28;20187;-83
2022/07/01 01:32:33;;;;;;;13.17;8.07;;;;;;;19.60;80.03;98670.72;5054402;28;20225;-83
2022/07/01 01:34:58;;;;;;;12.53;8.90;;;;;;;18.67;80.51;98529.88;5036894;28;20181;-83
2022/07/01 01:37:24;;;;;;;10.73;8.03;;;;;;;19.39;81.42;98675.06;5054635;28;20224;-83
2022/07/01 01:39:49;;;;;;;11.60;8.50;;;;;;;20.68;82.31;98889.59;5053355;28;20165;-83
2022/07/01 01:42:14;;;;;;;14.40;9.43;;;;;;;20.30;82.37;98828.88;5054835;28;20251;-83
2022/07/01 01:44:40;;;;;;;13.37;8.63;;;;;;;20.45;82.06;98851.13;5054446;28;20169;-84
2022/07/01 01:47:06;;;;;;;11.77;8.63;;;;;;;21.55;82.58;99028.16;5054574;28;20161;-83
2022/07/01 01:49:31;;;;;;;11.03;8.50;;;;;;;20.58;82.04;98838.19;5054552;28;20597;-83
2022/07/01 01:51:59;;;;;;;12.57;9.30;;;;;;;20.34;83.05;98825.44;5054369;28;20165;-83
2022/07/01 01:54:24;;;;;;;14.73;9.07;;;;;;;19.22;83.65;98661.41;5054444;28;20162;-82
2022/07/01 01:56:50;;;;;;;13.07;9.67;;;;;;;20.41;86.27;98927.41;5054898;28;20268;-83
2022/07/01 01:59:15;;;;;;;14.50;9.93;;;;;;;18.71;86.91;98674.28;5054859;28;20165;-83
2022/07/01 02:01:41;;;;;;;12.50;9.90;;;;;;;21.08;86.35;99022.38;5054268;28;20236;-83
2022/07/01 02:04:06;;;;;;;15.27;9.73;;;;;;;21.09;85.94;99027.53;5054443;28;20533;-85
2022/07/01 02:06:32;;;;;;;14.60;9.40;;;;;;;19.68;85.55;98766.56;5054142;28;20621;-84
2022/07/01 02:08:57;;;;;;;15.30;9.90;;;;;;;20.30;86.09;98897.47;5054262;28;20214;-84
2022/07/01 02:11:22;;;;;;;12.63;9.37;;;;;;;21.48;85.85;99098.56;5054262;28;20161;-84
2022/07/01 02:13:48;;;;;;;20.57;13.73;;;;;;;19.23;83.95;98668.22;5054114;28;20169;-85
2022/07/01 02:16:13;;;;;;;13.50;9.73;;;;;;;19.99;85.09;98811.84;5053872;28;20196;-83
2022/07/01 02:18:39;;;;;;;14.43;10.37;;;;;;;22.01;84.16;99157.59;5052720;28;20646;-84
2022/07/01 02:21:04;;;;;;;17.27;11.00;;;;;;;18.32;84.36;98571.75;5053762;28;20154;-84
2022/07/01 02:23:29;;;;;;;18.13;11.17;;;;;;;19.88;84.90;98829.03;5053979;28;20188;-83
2022/07/01 02:25:55;;;;;;;19.47;11.30;;;;;;;19.52;86.19;98800.84;5053864;28;20162;-84
2022/07/01 02:28:21;;;;;;;19.93;11.37;;;;;;;20.77;86.10;99039.63;5053802;28;20169;-84
2022/07/01 02:30:46;;;;;;;15.47;11.27;;;;;;;19.91;85.97;98913.81;5062329;28;20157;-83
2022/07/01 02:33:12;;;;;;;16.03;11.10;;;;;;;18.82;85.91;98736.69;5057275;28;20225;-84
2022/07/01 02:35:38;;;;;;;15.53;11.53;;;;;;;20.77;87.24;99090.22;5053951;28;20240;-83
2022/07/01 02:38:05;;;;;;;13.77;11.33;;;;;;;19.55;89.68;98944.63;5053735;28;20272;-84
2022/07/01 02:40:30;;;;;;;14.33;11.20;;;;;;;17.94;91.63;98736.50;5053936;28;20685;-83
2022/07/01 02:42:56;;;;;;;17.30;11.53;;;;;;;20.33;91.54;99096.25;5053718;28;20184;-83
2022/07/01 02:45:21;;;;;;;18.83;12.30;;;;;;;20.88;90.92;99169.09;5053493;28;20169;-84
2022/07/01 02:47:47;;;;;;;14.63;11.20;;;;;;;19.71;90.03;98982.31;5053324;28;20181;-84
2022/07/01 02:50:13;;;;;;;15.43;11.13;;;;;;;19.42;89.39;98900.09;5053518;28;20166;-82
2022/07/01 02:52:41;;;;;;;15.00;11.00;;;;;;;21.10;88.83;99177.69;5053450;28;20185;-84
2022/07/01 02:55:11;;;;;;;18.27;11.83;;;;;;;18.77;90.36;98840.97;5053924;28;20161;-83
2022/07/01 02:57:38;;;;;;;17.87;11.00;;;;;;;17.23;92.14;98615.00;5053415;28;20186;-83
2022/07/01 03:00:05;;;;;;;15.30;11.00;;;;;;;17.59;95.64;98758.53;5053559;28;20167;-83
2022/07/01 03:02:32;;;;;;;17.37;12.63;;;;;;;18.52;96.14;98918.69;5053150;28;20226;-84
2022/07/01 03:04:57;;;;;;;15.23;11.47;;;;;;;19.72;95.34;99066.22;5053069;28;20161;-84
2022/07/01 03:07:23;;;;;;;19.20;13.83;;;;;;;17.58;93.89;98688.53;5053439;28;20191;-83
2022/07/01 03:09:48;;;;;;;16.87;11.60;;;;;;;20.51;94.06;99188.88;5053282;28;20222;-83
2022/07/01 03:12:29;;;;;;;16.90;12.00;;;;;;;20.40;94.39;99182.84;5053549;28;20165;-84
2022/07/01 03:14:57;;;;;;;18.07;11.57;;;;;;;20.65;93.96;99203.44;5053112;28;20153;-83
2022/07/01 03:17:27;;;;;;;15.37;11.57;;;;;;;20.60;93.30;99206.03;5052666;28;20185;-83
2022/07/01 03:19:53;;;;;;;16.10;10.73;;;;;;;19.25;92.75;98971.09;5034898;28;20170;-84
2022/07/01 03:22:23;;;;;;;16.93;10.87;;;;;;;20.55;93.38;99208.56;5052820;28;20165;-84
2022/07/01 03:24:50;;;;;;;14.47;11.27;;;;;;;20.07;93.57;99138.22;5052847;28;20165;-84
2022/07/01 03:27:16;;;;;;;14.47;11.07;;;;;;;20.11;95.50;99174.19;5052394;28;20666;-83
2022/07/01 03:29:42;;;;;;;13.73;10.80;;;;;;;18.81;95.98;98965.81;5052202;28;20161;-82
2022/07/01 03:32:11;;;;;;;16.03;11.27;;;;;;;18.97;97.15;99024.03;5052246;28;20224;-83
2022/07/01 03:34:43;;;;;;;15.17;11.47;;;;;;;19.19;96.99;99050.63;5052351;28;20157;-85
2022/07/01 03:37:11;;;;;;;16.67;11.43;;;;;;;17.21;95.38;98698.56;5052419;28;20197;-83
2022/07/01 03:39:38;;;;;;;19.50;11.17;;;;;;;18.37;95.02;98873.31;5052442;28;20525;-84
2022/07/01 03:42:04;;;;;;;13.67;10.80;;;;;;;20.04;95.19;99131.34;5052343;28;20236;-84
2022/07/01 03:44:30;;;;;;;14.57;10.77;;;;;;;20.64;93.95;99206.84;5052279;28;20165;-85
2022/07/01 03:46:56;;;;;;;15.03;10.70;;;;;;;18.39;91.79;98774.22;5052594;28;20193;-85
2022/07/01 03:49:22;;;;;;;16.23;10.93;;;;;;;18.85;89.92;98788.00;5052064;28;20572;-82
2022/07/01 03:51:48;;;;;;;16.70;10.90;;;;;;;18.82;88.19;98764.91;5051982;28;20176;-82
2022/07/01 03:54:29;;;;;;;13.57;10.60;;;;;;;21.57;87.50;99217.06;5052052;28;20166;-81
2022/07/01 03:57:04;;;;;;;14.23;10.50;;;;;;;20.56;86.47;99027.69;5051707;28;20192;-83
2022/07/01 03:59:32;;;;;;;16.80;10.33;;;;;;;21.69;86.52;99209.28;5052215;28;20291;-83
2022/07/01 04:01:58;;;;;;;15.93;10.47;;;;;;;21.17;86.12;99112.47;5052985;28;20165;-82
2022/07/01 04:04:25;;;;;;;13.13;9.60;;;;;;;20.40;84.67;98948.84;5052011;28;20633;-82
2022/07/01 04:06:52;;;;;;;18.07;9.47;;;;;;;20.42;84.19;98944.56;5051626;28;20157;-83
2022/07/01 04:09:18;;;;;;;13.10;10.03;;;;;;;21.80;84.32;99205.81;5051677;28;20174;-82
2022/07/01 04:11:46;;;;;;;15.10;10.17;;;;;;;19.64;86.73;98944.66;5051408;28;20162;-81
2022/07/01 04:14:11;;;;;;;17.50;10.00;;;;;;;20.78;86.86;99097.09;5051533;28;20220;-82
2022/07/01 04:16:38;;;;;;;19.23;10.57;;;;;;;21.53;85.57;99207.63;5051637;28;20604;-83
2022/07/01 04:19:03;;;;;;;15.17;10.70;;;;;;;19.12;83.56;98785.44;5051694;28;20161;-83
2022/07/01 04:24:13;;;;;;;19.20;12.47;;;;;;;20.77;82.65;99046.47;5051840;28;20252;-85
2022/07/01 04:26:39;;;;;;;16.93;12.40;;;;;;;21.33;81.72;99116.69;5051765;28;20157;-84
2022/07/01 04:29:05;;;;;;;17.07;11.83;;;;;;;22.04;81.12;99208.28;5051574;28;20164;-84
2022/07/01 04:31:31;;;;;;;19.37;12.40;;;;;;;19.35;81.01;98773.44;5051305;28;20241;-84
2022/07/01 04:33:57;;;;;;;19.13;12.57;;;;;;;21.77;81.93;99194.66;5051287;28;20235;-84
2022/07/01 04:36:22;;;;;;;18.30;13.20;;;;;;;20.11;81.28;98894.03;5050785;28;20196;-82
2022/07/01 04:38:47;;;;;;;20.10;11.87;;;;;;;20.72;81.53;99007.03;5051112;28;20180;-82
2022/07/01 04:43:57;;;;;;;15.50;11.10;;;;;;;21.44;82.00;99096.91;5049375;28;20184;-85
2022/07/01 04:46:22;;;;;;;11.80;10.30;;;;;;;20.83;81.93;98972.69;5051085;28;20157;-84
2022/07/01 04:48:48;;;;;;;14.27;10.83;;;;;;;21.71;83.37;99119.94;5032985;28;20173;-83
2022/07/01 04:51:13;;;;;;;16.77;10.60;;;;;;;22.28;83.83;99218.47;5041893;28;20171;-83
2022/07/01 04:53:39;;;;;;;16.20;10.30;;;;;;;22.09;83.78;99154.97;5049265;28;20186;-82
2022/07/01 04:56:04;;;;;;;16.13;10.67;;;;;;;22.49;84.57;99214.91;5052479;28;20237;-85
2022/07/01 04:58:29;;;;;;;13.83;10.87;;;;;;;20.21;84.14;98836.63;5032666;28;20173;-85
2022/07/01 05:00:55;;;;;;;14.03;10.27;;;;;;;20.96;83.31;98930.59;5050409;28;20205;-82
2022/07/01 05:03:21;;;;;;;16.17;10.00;;;;;;;21.21;81.05;98930.47;5043349;28;20272;-86
2022/07/01 05:05:46;;;;;;;14.37;10.27;;;;;;;22.89;78.41;99165.53;5013702;28;20538;-86
2022/07/01 05:08:12;;;;;;;15.80;9.63;;;;;;;21.53;76.38;98875.31;5033234;28;20169;-86
2022/07/01 05:10:37;;;;;;;13.10;9.70;;;;;;;23.75;73.94;99202.53;5024971;28;20184;-87
2022/07/01 05:13:03;;;;;;;13.17;9.97;;;;;;;22.39;72.84;98914.84;5030835;28;20192;-89
2022/07/01 05:15:29;;;;;;;11.20;9.20;;;;;;;23.54;71.48;99050.28;5014434;28;20628;-87
2022/07/01 05:23:22;;;;;;;13.10;9.17;;;;;;;24.08;70.00;99127.06;5032259;28;20246;-87
2022/07/01 05:25:47;;;;;;;11.97;8.77;;;;;;;22.77;69.93;98893.78;5033915;28;20178;-86
2022/07/01 05:28:13;;;;;;;12.67;8.97;;;;;;;22.41;69.44;98926.03;5013992;28;20569;-87
2022/07/01 05:30:39;;;;;;;11.73;8.87;;;;;;;22.74;68.49;98919.63;5044222;28;20533;-86
2022/07/01 05:33:04;;;;;;;14.77;8.23;;;;;;;22.53;66.61;98875.97;5052206;28;20229;-86
2022/07/01 05:35:30;;;;;;;12.27;8.30;;;;;;;24.43;65.67;99188.66;5047018;28;20192;-87
2022/07/01 05:37:56;;;;;;;11.73;8.13;;;;;;;24.90;65.17;99223.31;5042808;28;20937;-88
2022/07/01 05:40:21;;;;;;;12.43;8.67;;;;;;;23.18;65.26;98953.47;5018159;28;20268;-86
2022/07/01 05:42:47;;;;;;;12.23;8.30;;;;;;;22.46;64.91;98774.63;5018471;28;20241;-87
2022/07/01 05:45:12;;;;;;;14.83;8.57;;;;;;;23.48;64.40;98921.19;5037228;28;20188;-87
2022/07/01 05:47:38;;;;;;;14.13;8.70;;;;;;;23.45;64.06;98908.31;5057978;28;20201;-85
2022/07/01 05:50:03;;;;;;;13.10;8.53;;;;;;;23.43;61.29;98814.47;5038323;28;20186;-86
2022/07/01 05:52:29;;;;;;;13.37;8.30;;;;;;;26.19;59.87;99193.16;5035347;28;20237;-87
2022/07/01 05:54:55;;;;;;;12.50;8.27;;;;;;;25.15;59.00;99023.38;5059582;28;20189;-87
2022/07/01 05:57:20;;;;;;;10.33;8.10;;;;;;;24.41;58.52;98887.63;5044693;28;20264;-85
2022/07/01 05:59:45;;;;;;;8.87;7.50;;;;;;;24.41;59.21;98992.88;5041819;28;20232;-84
2022/07/01 06:02:11;;;;;;;16.03;8.30;;;;;;;26.39;58.15;99211.75;5036059;28;20202;-87
2022/07/01 06:04:36;;;;;;;13.50;8.50;;;;;;;26.37;56.93;99164.16;5034767;28;20569;-88
2022/07/01 06:07:02;;;;;;;18.73;8.17;;;;;;;26.54;55.19;99117.03;5034336;28;20265;-86
2022/07/01 06:09:27;;;;;;;10.23;7.93;;;;;;;26.43;54.94;99065.38;5033542;28;20187;-85
2022/07/01 06:11:53;;;;;;;14.55;8.20;;;;;;;27.49;53.70;99200.31;5034217;28;20223;-86
2022/07/01 06:14:18;;;;;;;14.50;7.72;;;;;;;27.69;52.40;99187.59;5043816;28;20200;-86
2022/07/01 06:16:44;;;;;;;11.25;7.43;;;;;;;27.48;51.61;99118.84;5045652;28;20219;-87
2022/07/01 06:19:09;;;;;;;9.73;7.20;;;;;;;25.30;51.73;98876.22;5045998;28;20269;-85
2022/07/01 06:21:35;;;;;;;10.52;7.70;;;;;;;25.83;52.79;99002.84;5050231;28;20188;-88
2022/07/01 06:24:00;;;;;;;9.85;6.90;;;;;;;27.63;52.08;99212.94;5030181;28;20195;-85
2022/07/01 06:26:26;;;;;;;10.13;7.07;;;;;;;27.33;52.36;99218.03;5033776;28;20189;-85
2022/07/01 06:28:52;;;;;;;9.98;7.10;;;;;;;27.18;52.48;99217.59;5024079;28;20629;-85
2022/07/01 06:31:17;;;;;;;13.18;7.40;;;;;;;26.83;52.53;99068.69;5053640;28;20244;-88
2022/07/01 06:33:42;;;;;;;13.95;7.32;;;;;;;26.95;51.18;99083.06;5053583;28;20180;-85
2022/07/01 06:36:08;;;;;;;11.88;7.57;;;;;;;26.36;50.64;98928.84;5050265;28;20265;-85
2022/07/01 06:38:33;;;;;;;10.35;7.18;;;;;;;26.04;50.51;98908.91;5045342;28;20566;-87
2022/07/01 06:43:43;;;;;;;17.27;7.70;;;;;;;28.13;50.37;99221.91;5033009;28;20615;-86
2022/07/01 06:46:08;;;;;;;10.13;7.00;;;;;;;28.47;48.75;99215.63;5035398;28;20186;-85
2022/07/01 06:48:35;;;;;;;11.43;6.97;;;;;;;27.19;49.87;99091.94;5052525;28;20277;-85
2022/07/01 06:51:01;;;;;;;11.52;7.13;;;;;;;27.88;49.01;99148.88;5052642;28;20701;-85
2022/07/01 06:53:27;;;;;;;10.18;6.68;;;;;;;28.47;48.59;99220.81;5027111;28;20243;-87
2022/07/01 06:55:52;;;;;;;10.00;6.90;;;;;;;27.89;49.58;99195.69;5034226;28;20266;-86
2022/07/01 06:58:18;;;;;;;7.68;6.88;;;;;;;25.30;50.20;98851.13;5015390;28;20565;-87
2022/07/01 07:00:43;;;;;;;9.68;6.30;;;;;;;27.85;49.52;99216.63;5033060;28;20209;-85
2022/07/01 07:03:09;;;;;;;10.73;6.65;;;;;;;27.85;47.25;99089.13;5032450;28;20192;-86
2022/07/01 07:05:34;;;;;;;8.40;6.78;;;;;;;27.53;46.83;98999.06;5035510;28;20188;-87
2022/07/01 07:07:59;;;;;;;9.52;6.60;;;;;;;26.51;47.44;98893.81;5042644;28;20248;-85
2022/07/01 07:10:25;;;;;;;7.68;6.15;;;;;;;27.64;48.11;99084.56;5034106;28;20226;-87
2022/07/01 07:12:50;;;;;;;7.93;6.10;;;;;;;28.28;47.46;99180.63;5045047;28;20188;-89
2022/07/01 07:15:16;;;;;;;9.60;6.22;;;;;;;28.51;46.33;99201.56;5054454;28;20262;-85
2022/07/01 07:17:42;;;;;;;7.43;5.68;;;;;;;28.47;46.44;99207.78;5054096;28;20211;-85
2022/07/01 07:20:08;;;;;;;8.55;6.07;;;;;;;25.99;46.27;98795.75;5054124;28;20187;-87
2022/07/01 07:22:34;;;;;;;8.95;5.68;;;;;;;28.37;44.42;99031.91;5056993;28;20245;-86
2022/07/01 07:25:00;;;;;;;8.73;5.97;;;;;;;29.11;43.63;99088.38;5068860;28;20185;-84
2022/07/01 07:27:26;;;;;;;10.32;6.28;;;;;;;27.15;45.21;98896.22;5057874;28;20195;-86
2022/07/01 07:29:51;;;;;;;9.50;6.68;;;;;;;28.13;46.24;99089.16;5054458;28;20870;-86
2022/07/01 07:32:17;;;;;;;11.30;6.95;;;;;;;26.39;46.70;98765.22;5053906;28;20319;-88
2022/07/01 07:34:43;;;;;;;10.20;6.95;;;;;;;29.57;45.06;99202.34;5054872;28;20203;-88
2022/07/01 07:37:08;;;;;;;8.40;6.50;;;;;;;28.80;44.55;99111.19;5035368;28;20215;-87
2022/07/01 07:39:34;;;;;;;13.23;6.70;;;;;;;29.24;43.48;99137.47;5053667;28;20180;-88
2022/07/01 07:41:59;;;;;;;13.07;6.80;;;;;;;27.52;42.49;98758.94;5053206;28;20761;-89
2022/07/01 07:44:25;;;;;;;8.40;5.53;;;;;;;29.92;41.89;99151.47;5035002;28;20209;-87
2022/07/01 07:46:50;;;;;;;6.60;5.72;;;;;;;30.75;41.16;99219.56;5069342;28;20191;-88
2022/07/01 07:49:16;;;;;;;7.93;5.72;;;;;;;29.65;41.66;99106.38;5055352;28;20669;-89
2022/07/01 07:51:42;;;;;;;7.30;5.93;;;;;;;29.48;41.56;99069.63;5044351;28;20226;-86
2022/07/01 07:54:07;;;;;;;8.68;6.40;;;;;;;30.27;42.03;99213.66;5021632;28;20299;-88
2022/07/01 07:56:32;;;;;;;6.97;5.75;;;;;;;28.88;42.15;99054.44;5032793;28;20296;-88
2022/07/01 07:58:58;;;;;;;7.53;6.00;;;;;;;30.02;42.51;99174.56;5031393;28;20265;-87
2022/07/01 08:01:25;;;;;;;7.97;5.78;;;;;;;30.26;40.13;99173.59;5031984;28;20203;-87
2022/07/01 08:03:50;;;;;;;7.35;5.38;;;;;;;29.92;40.10;99148.84;5050754;28;20184;-87
2022/07/01 08:06:16;;;;;;;12.13;5.95;;;;;;;29.65;39.80;98991.53;5059564;28;20191;-86
2022/07/01 08:08:41;;;;;;;8.38;5.88;;;;;;;29.07;40.65;98884.25;5058496;28;20199;-88
2022/07/01 08:11:07;;;;;;;9.90;5.97;;;;;;;30.19;40.02;98993.69;5055470;28;20195;-89
2022/07/01 08:13:33;;;;;;;11.18;5.93;;;;;;;32.01;38.87;99209.69;5054814;28;20739;-88
2022/07/01 08:16:00;;;;;;;10.57;5.50;;;;;;;31.80;38.61;99220.28;5056086;28;20181;-88
2022/07/01 08:18:26;;;;;;;7.30;5.30;;;;;;;31.18;38.75;99223.03;5035855;28;20216;-90
2022/07/01 08:20:53;;;;;;;8.45;5.50;;;;;;;31.79;37.87;99219.44;5052560;28;20193;-90
2022/07/01 08:23:20;;;;;;;7.22;5.80;;;;;;;30.56;38.27;99061.78;5054756;28;20644;-88
2022/07/01 08:25:47;;;;;;;10.45;5.60;;;;;;;30.96;37.18;99006.84;5052943;28;20240;-87
2022/07/01 08:28:12;;;;;;;8.38;5.60;;;;;;;30.58;37.30;99022.50;5036718;28;20192;-87
2022/07/01 08:30:38;;;;;;;6.28;5.05;;;;;;;30.95;37.17;99174.31;5037564;28;20192;-89
2022/07/01 08:33:04;;;;;;;6.68;5.35;;;;;;;30.90;36.75;99041.09;5053771;28;20224;-88
2022/07/01 08:35:30;;;;;;;9.05;5.75;;;;;;;32.58;37.09;99208.72;5052617;28;20195;-88
2022/07/01 08:37:56;;;;;;;7.63;5.38;;;;;;;30.82;36.87;98895.97;5045260;28;20342;-90
2022/07/01 08:40:31;;;;;;;12.88;6.00;;;;;;;31.50;37.86;99089.03;5049495;28;20241;-88
2022/07/01 08:42:58;;;;;;;7.13;5.50;;;;;;;32.06;38.44;99131.75;5015261;28;20646;-90
2022/07/01 08:45:30;;;;;;;10.95;5.80;;;;;;;32.95;37.56;99206.91;5031637;28;20189;-89
2022/07/01 08:48:02;;;;;;;13.05;5.63;;;;;;;31.56;36.42;98950.00;5049648;28;20185;-87
2022/07/01 08:50:37;;;;;;;10.13;5.80;;;;;;;30.28;38.42;98961.94;5035474;28;20189;-87
2022/07/01 08:53:04;;;;;;;12.57;6.13;;;;;;;32.67;37.86;99207.44;5008347;28;20228;-90
2022/07/01 08:55:30;;;;;;;7.30;5.53;;;;;;;33.34;36.43;99201.44;5032568;28;20189;-87
2022/07/01 08:57:55;;;;;;;11.30;5.57;;;;;;;33.16;35.63;99133.22;5048660;28;20284;-86
2022/07/01 09:00:21;;;;;;;8.25;6.00;;;;;;;33.59;35.65;99222.88;5050955;28;20192;-86
2022/07/01 09:02:58;;;;;;;12.18;5.63;;;;;;;33.43;35.59;99179.97;5043645;28;20228;-88
2022/07/01 09:05:25;;;;;;;9.48;5.50;;;;;;;31.85;35.26;98936.31;5031472;28;20181;-88
2022/07/01 09:08:03;;;;;;;9.32;6.07;;;;;;;33.59;35.54;99165.13;5031134;28;20181;-87
2022/07/01 09:10:34;;;;;;;10.88;5.90;;;;;;;33.77;36.01;99195.63;5031201;28;20185;-85
2022/07/01 09:13:11;;;;;;;11.13;5.68;;;;;;;33.01;35.50;99052.66;5015052;28;20558;-87
2022/07/01 09:15:39;;;;;;;9.00;5.60;;;;;;;33.80;35.21;99198.94;5012813;28;20255;-89
2022/07/01 09:18:05;;;;;;;9.00;5.60;;;;;;;33.76;35.17;99191.31;5031971;28;20205;-88
2022/07/01 09:20:36;;;;;;;8.63;5.40;;;;;;;32.91;35.15;99134.56;5032124;28;20268;-88
2022/07/01 09:23:06;;;;;;;8.88;5.30;;;;;;;31.94;36.15;99010.97;5031067;28;20182;-86
2022/07/01 09:25:45;;;;;;;8.95;5.47;;;;;;;31.85;35.97;98946.81;5030926;28;20635;-86
2022/07/01 09:28:13;;;;;;;12.90;5.35;;;;;;;33.89;34.39;99189.72;5033528;28;20181;-85
2022/07/01 09:30:42;;;;;;;9.85;5.82;;;;;;;34.15;35.12;99191.78;5035382;28;20192;-89
2022/07/01 09:33:12;;;;;;;8.88;5.20;;;;;;;32.81;34.47;98929.59;5033444;28;20257;-85
2022/07/01 09:35:38;;;;;;;6.07;5.25;;;;;;;34.53;34.62;99189.59;5019411;28;20681;-88
2022/07/01 09:38:05;;;;;;;8.23;5.43;;;;;;;33.32;34.86;98959.19;5017451;28;20573;-89
2022/07/01 09:40:57;;;;;;;6.97;5.10;;;;;;;35.03;34.69;99188.47;5017388;28;20643;-88
2022/07/01 09:43:26;;;;;;;12.32;5.45;;;;;;;34.06;35.22;99181.75;5035008;28;20178;-87
2022/07/01 09:46:03;;;;;;;7.00;4.90;;;;;;;33.86;34.21;99045.41;5035594;28;20269;-89
2022/07/01 09:48:48;;;;;;;8.75;5.57;;;;;;;32.55;34.44;98825.28;5034523;28;20204;-89
2022/07/01 09:51:15;;;;;;;11.55;5.10;;;;;;;32.03;35.00;98785.25;5034184;28;20203;-87
2022/07/01 09:53:42;;;;;;;10.05;5.63;;;;;;;32.48;35.61;98869.28;5029134;28;20764;-88
2022/07/01 09:56:08;;;;;;;9.18;5.85;;;;;;;34.42;34.91;99203.38;5054631;28;20533;-86
2022/07/01 09:58:37;;;;;;;9.88;5.80;;;;;;;33.00;35.10;98905.81;5036767;28;20239;-87
2022/07/01 10:01:03;;;;;;;8.02;5.55;;;;;;;34.46;34.98;99177.75;5036178;28;20188;-87
2022/07/01 10:03:32;;;;;;;8.73;6.00;;;;;;;33.01;35.72;98960.84;5053984;28;20185;-87
2022/07/01 10:06:33;;;;;;;6.47;5.50;;;;;;;34.60;35.31;99177.00;5054272;28;20196;-86
2022/07/01 10:09:26;;;;;;;8.95;5.80;;;;;;;35.03;35.10;99167.41;5053387;28;20196;-86
2022/07/01 10:11:51;;;;;;;8.13;5.72;;;;;;;35.00;33.92;99168.44;5053921;28;20199;-86
2022/07/01 10:14:19;;;;;;;7.68;5.63;;;;;;;33.84;33.81;98948.25;5035775;28;20220;-87
2022/07/01 10:16:50;;;;;;;9.30;6.03;;;;;;;32.95;34.30;98905.22;5054721;28;20211;-87
2022/07/01 10:19:25;;;;;;;11.27;6.45;;;;;;;34.82;34.37;99174.81;5055003;28;20177;-87
2022/07/01 10:21:55;;;;;;;10.40;6.50;;;;;;;35.29;34.37;99159.69;5055168;28;20206;-89
2022/07/01 10:24:21;;;;;;;11.02;5.68;;;;;;;34.73;32.95;98991.19;5054834;28;20186;-88
2022/07/01 10:26:46;;;;;;;8.95;5.65;;;;;;;35.09;32.86;99009.16;5055432;28;20238;-87
2022/07/01 10:29:36;;;;;;;8.55;5.78;;;;;;;35.83;32.40;99152.81;5052574;28;21005;-87
2022/07/01 10:32:11;;;;;;;9.27;6.18;;;;;;;35.56;32.86;99120.31;5029748;28;20232;-87
2022/07/01 10:34:41;;;;;;;8.77;6.05;;;;;;;34.15;32.19;98897.41;5034154;28;20555;-92
2022/07/01 10:37:09;;;;;;;7.00;5.28;;;;;;;33.66;31.28;98832.94;5033819;28;20228;-90
2022/07/01 10:39:57;;;;;;;10.88;5.70;;;;;;;35.94;29.27;99141.59;5037185;28;20197;-89
2022/07/01 10:42:58;;;;;;;9.15;5.63;;;;;;;35.83;30.25;99091.34;5056556;28;20180;-89
2022/07/01 10:45:24;;;;;;;8.13;5.85;;;;;;;34.00;30.63;98787.97;5037438;28;20199;-86
2022/07/01 10:48:23;;;;;;;10.80;6.10;;;;;;;35.06;28.25;98946.16;5054604;28;20177;-87
2022/07/01 10:50:49;;;;;;;6.72;5.72;;;;;;;34.66;28.31;98806.63;5040309;28;20186;-87
2022/07/01 10:53:15;;;;;;;6.35;5.40;;;;;;;36.46;28.05;99107.41;5022478;28;20233;-89
2022/07/01 10:55:45;;;;;;;7.88;5.93;;;;;;;33.94;28.43;98674.50;5038682;28;20709;-86
2022/07/01 10:58:11;;;;;;;7.97;6.47;;;;;;;36.20;29.05;99048.50;5033917;28;20657;-86
2022/07/01 11:00:41;;;;;;;9.50;6.07;;;;;;;36.49;27.90;99123.03;5044986;28;20176;-85
2022/07/01 11:03:12;;;;;;;10.32;5.75;;;;;;;34.44;28.28;98758.94;5056200;28;20212;-86
2022/07/01 11:05:38;;;;;;;8.60;6.28;;;;;;;34.34;27.73;98699.97;5063280;28;21096;-88
2022/07/01 11:08:07;;;;;;;7.18;6.00;;;;;;;33.52;27.04;98615.81;5050430;28;20266;-86
2022/07/01 11:10:33;;;;;;;8.68;5.50;;;;;;;34.40;26.42;98658.38;5042033;28;20189;-88
2022/07/01 11:13:02;;;;;;;7.28;5.30;;;;;;;35.87;25.77;98859.16;5053027;28;20571;-87
2022/07/01 11:15:31;;;;;;;10.95;6.22;;;;;;;35.71;25.46;98754.91;5052203;28;20192;-87
2022/07/01 11:17:58;;;;;;;6.88;5.70;;;;;;;37.15;25.43;98998.84;5051936;28;20266;-86
2022/07/01 11:20:29;;;;;;;6.00;5.40;;;;;;;35.01;25.20;98674.53;5052050;28;20672;-88
2022/07/01 11:22:55;;;;;;;7.20;5.80;;;;;;;35.06;25.52;98736.47;5052631;28;20184;-86
2022/07/01 11:25:21;;;;;;;10.20;5.63;;;;;;;36.15;26.61;98897.69;5052405;28;20574;-87
2022/07/01 11:27:49;;;;;;;9.30;5.80;;;;;;;36.91;27.01;98987.34;5034440;28;20577;-87
2022/07/01 11:30:15;;;;;;;8.88;5.82;;;;;;;37.81;26.83;99118.22;5051776;28;20174;-87
2022/07/01 11:32:44;;;;;;;11.45;6.00;;;;;;;36.80;27.11;98969.63;5048683;28;20229;-88
2022/07/01 11:41:09;;;;;;;7.03;5.20;;;;;;;35.86;23.92;98695.88;5054502;28;20676;-88
2022/07/01 11:43:37;;;;;;;8.32;5.10;;;;;;;37.02;24.41;98765.72;5034081;28;20189;-85
2022/07/01 11:46:05;;;;;;;7.75;5.50;;;;;;;37.75;23.60;98785.63;5036146;28;20204;-84